createdAt,value
2023-04-18T00:02:17.557Z,96394.88
2023-04-18T00:05:24.770Z,96395.00
2023-04-18T00:08:36.648Z,96390.78
2023-04-18T00:11:43.531Z,96394.75
2023-04-18T00:14:52.827Z,96393.91
2023-04-18T00:18:03.791Z,96383.81
2023-04-18T00:21:11.122Z,96392.47
2023-04-18T00:24:22.855Z,96389.81
2023-04-18T00:27:27.925Z,96398.66
2023-04-18T00:30:35.587Z,96395.16
2023-04-18T00:33:39.968Z,96394.47
2023-04-18T00:36:42.860Z,96387.31
2023-04-18T00:39:48.500Z,96390.97
2023-04-18T00:42:52.119Z,96390.97
2023-04-18T00:45:59.737Z,96383.38
2023-04-18T00:49:02.690Z,96387.72
2023-04-18T00:52:07.084Z,96386.75
2023-04-18T00:55:15.624Z,96385.19
2023-04-18T00:58:20.343Z,96383.38
2023-04-18T01:01:24.503Z,96386.03
2023-04-18T01:04:30.212Z,96385.38
2023-04-18T01:07:33.972Z,96394.16
2023-04-18T01:10:38.555Z,96381.69
2023-04-18T01:13:41.053Z,96389.00
2023-04-18T01:16:44.034Z,96379.34
2023-04-18T01:19:50.097Z,96381.16
2023-04-18T01:23:01.467Z,96378.50
2023-04-18T01:26:05.219Z,96375.97
2023-04-18T01:29:08.826Z,96378.75
2023-04-18T01:32:14.936Z,96380.75
2023-04-18T01:35:17.863Z,96383.25
2023-04-18T01:38:25.162Z,96373.72
2023-04-18T01:41:35.019Z,96373.88
2023-04-18T01:44:39.689Z,96374.84
2023-04-18T01:47:45.116Z,96373.47
2023-04-18T01:50:49.941Z,96369.81
2023-04-18T01:53:54.043Z,96377.94
2023-04-18T01:56:58.164Z,96364.06
2023-04-18T02:00:02.971Z,96370.34
2023-04-18T02:03:18.101Z,96369.69
2023-04-18T02:06:24.236Z,96368.00
2023-04-18T02:09:31.209Z,96374.28
2023-04-18T02:12:36.343Z,96375.25
2023-04-18T02:15:43.424Z,96378.75
2023-04-18T02:18:53.139Z,96375.69
2023-04-18T02:22:05.082Z,96381.84
2023-04-18T02:25:11.204Z,96381.97
2023-04-18T02:28:14.607Z,96382.81
2023-04-18T02:31:18.389Z,96388.13
2023-04-18T02:34:20.000Z,96383.94
2023-04-18T02:37:25.012Z,96384.91
2023-04-18T02:40:29.685Z,96381.28
2023-04-18T02:43:35.021Z,96379.88
2023-04-18T02:46:37.874Z,96383.38
2023-04-18T02:49:59.404Z,96387.00
2023-04-18T02:53:06.453Z,96381.81
2023-04-18T02:56:32.162Z,96381.97
2023-04-18T02:59:57.870Z,96383.50
2023-04-18T03:03:20.568Z,96368.53
2023-04-18T03:06:48.147Z,96376.78
2023-04-18T03:09:54.175Z,96376.94
2023-04-18T03:13:07.676Z,96378.75
2023-04-18T03:16:17.701Z,96377.06
2023-04-18T03:19:28.580Z,96374.66
2023-04-18T03:22:35.696Z,96369.66
2023-04-18T03:25:40.770Z,96368.09
2023-04-18T03:28:43.834Z,96371.72
2023-04-18T03:31:49.146Z,96371.00
2023-04-18T03:34:53.461Z,96370.03
2023-04-18T03:37:59.638Z,96377.31
2023-04-18T03:41:07.971Z,96373.81
2023-04-18T03:44:13.514Z,96367.09
2023-04-18T03:47:19.721Z,96357.72
2023-04-18T03:50:28.519Z,96363.72
2023-04-18T03:53:32.704Z,96364.97
2023-04-18T03:56:36.450Z,96370.16
2023-04-18T03:59:43.902Z,96363.16
2023-04-18T04:02:46.440Z,96367.63
2023-04-18T04:05:59.275Z,96377.41
2023-04-18T04:09:06.420Z,96368.75
2023-04-18T04:12:09.246Z,96377.97
2023-04-18T04:15:25.390Z,96375.44
2023-04-18T04:18:35.907Z,96381.03
2023-04-18T04:21:38.734Z,96381.03
2023-04-18T04:24:46.982Z,96377.69
2023-04-18T04:27:54.684Z,96380.47
2023-04-18T04:30:59.528Z,96376.25
2023-04-18T04:34:05.252Z,96378.09
2023-04-18T04:37:10.480Z,96375.56
2023-04-18T04:40:25.799Z,96381.56
2023-04-18T04:43:31.431Z,96378.22
2023-04-18T04:46:36.868Z,96381.44
2023-04-18T04:49:42.234Z,96384.22
2023-04-18T04:52:49.851Z,96383.41
2023-04-18T04:55:55.133Z,96387.88
2023-04-18T04:58:59.193Z,96388.72
2023-04-18T05:02:24.785Z,96396.81
2023-04-18T05:05:31.319Z,96392.47
2023-04-18T05:08:39.103Z,96384.09
2023-04-18T05:11:42.679Z,96392.47
2023-04-18T05:14:44.831Z,96394.59
2023-04-18T05:17:46.737Z,96393.63
2023-04-18T05:20:53.891Z,96399.66
2023-04-18T05:23:57.127Z,96404.81
2023-04-18T05:26:59.609Z,96410.97
2023-04-18T05:30:04.354Z,96407.34
2023-04-18T05:33:09.672Z,96403.72
2023-04-18T05:36:23.134Z,96400.34
2023-04-18T05:39:28.536Z,96411.41
2023-04-18T05:42:35.073Z,96416.16
2023-04-18T05:45:39.197Z,96416.03
2023-04-18T05:48:43.156Z,96422.06
2023-04-18T05:51:46.561Z,96412.09
2023-04-18T05:54:49.649Z,96412.94
2023-04-18T05:57:54.059Z,96413.78
2023-04-18T06:00:57.768Z,96409.44
2023-04-18T06:04:02.401Z,96418.84
2023-04-18T06:07:08.337Z,96418.00
2023-04-18T06:10:14.195Z,96415.47
2023-04-18T06:13:18.666Z,96433.41
2023-04-18T06:16:23.227Z,96437.47
2023-04-18T06:19:25.490Z,96426.16
2023-04-18T06:22:29.685Z,96424.75
2023-04-18T06:25:37.040Z,96442.09
2023-04-18T06:28:42.108Z,96442.25
2023-04-18T06:31:49.864Z,96435.56
2023-04-18T06:34:58.957Z,96433.44
2023-04-18T06:38:13.217Z,96442.97
2023-04-18T06:41:17.764Z,96440.88
2023-04-18T06:44:20.170Z,96440.75
2023-04-18T06:47:25.662Z,96441.47
2023-04-18T06:50:32.975Z,96445.81
2023-04-18T06:53:36.517Z,96439.34
2023-04-18T06:56:40.015Z,96442.31
2023-04-18T06:59:55.326Z,96443.47
2023-04-18T07:03:02.163Z,96445.56
2023-04-18T07:06:08.463Z,96443.31
2023-04-18T07:09:10.931Z,96447.81
2023-04-18T07:12:13.941Z,96436.34
2023-04-18T07:15:17.853Z,96443.50
2023-04-18T07:18:36.699Z,96446.13
2023-04-18T07:21:44.361Z,96447.25
2023-04-18T07:24:47.939Z,96434.91
2023-04-18T07:28:00.462Z,96441.94
2023-04-18T07:31:06.647Z,96444.31
2023-04-18T07:34:10.409Z,96442.63
2023-04-18T07:37:17.508Z,96439.66
2023-04-18T07:40:21.210Z,96443.44
2023-04-18T07:43:24.753Z,96445.53
2023-04-18T07:46:31.225Z,96443.13
2023-04-18T07:49:34.654Z,96437.06
2023-04-18T07:52:45.740Z,96441.66
2023-04-18T07:55:51.207Z,96446.28
2023-04-18T07:59:07.956Z,96443.84
2023-04-18T08:02:11.892Z,96443.31
2023-04-18T08:05:16.625Z,96446.34
2023-04-18T08:08:19.761Z,96433.41
2023-04-18T08:11:21.752Z,96447.56
2023-04-18T08:14:26.533Z,96442.16
2023-04-18T08:17:38.349Z,96429.91
2023-04-18T08:20:43.297Z,96440.38
2023-04-18T08:23:47.046Z,96443.53
2023-04-18T08:26:50.498Z,96434.47
2023-04-18T08:30:00.816Z,96440.94
2023-04-18T08:33:04.273Z,96434.69
2023-04-18T08:36:08.426Z,96436.44
2023-04-18T08:39:11.816Z,96437.06
2023-04-18T08:42:19.826Z,96444.88
2023-04-18T08:45:21.540Z,96438.75
2023-04-18T08:48:23.601Z,96441.84
2023-04-18T08:51:27.139Z,96448.41
2023-04-18T08:54:30.861Z,96455.13
2023-04-18T08:57:35.634Z,96461.84
2023-04-18T09:00:38.278Z,96464.72
2023-04-18T09:03:44.383Z,96463.03
2023-04-18T09:06:55.596Z,96465.84
2023-04-18T09:10:01.889Z,96474.91
2023-04-18T09:13:04.826Z,96472.53
2023-04-18T09:16:09.784Z,96463.97
2023-04-18T09:19:19.259Z,96472.66
2023-04-18T09:22:22.958Z,96465.72
2023-04-18T09:25:48.743Z,96470.81
2023-04-18T09:28:54.055Z,96466.19
2023-04-18T09:32:01.187Z,96470.38
2023-04-18T09:35:09.783Z,96469.91
2023-04-18T09:38:13.901Z,96470.59
2023-04-18T09:41:19.927Z,96473.25
2023-04-18T09:44:26.243Z,96470.88
2023-04-18T09:50:47.385Z,96474.06
2023-04-18T09:53:53.356Z,96471.22
2023-04-18T09:57:06.292Z,96483.44
2023-04-18T10:00:24.680Z,96481.28
2023-04-18T10:03:37.863Z,96474.41
2023-04-18T10:06:44.558Z,96477.56
2023-04-18T10:09:46.890Z,96478.25
2023-04-18T10:12:54.292Z,96472.72
2023-04-18T10:15:56.924Z,96475.94
2023-04-18T10:19:26.485Z,96480.97
2023-04-18T10:22:28.678Z,96484.50
2023-04-18T10:25:39.565Z,96481.28
2023-04-18T10:28:53.463Z,96482.13
2023-04-18T10:31:55.980Z,96478.75
2023-04-18T10:34:59.712Z,96482.47
2023-04-18T10:38:01.992Z,96474.47
2023-04-18T10:41:17.191Z,96472.47
2023-04-18T10:44:21.876Z,96475.31
2023-04-18T10:47:37.009Z,96474.47
2023-04-18T10:51:25.310Z,96482.03
2023-04-18T10:54:44.171Z,96472.69
2023-04-18T10:57:47.772Z,96465.69
2023-04-18T11:00:54.077Z,96465.19
2023-04-18T11:03:57.201Z,96456.88
2023-04-18T11:07:01.323Z,96459.88
2023-04-18T11:10:07.465Z,96456.75
2023-04-18T11:13:10.595Z,96455.06
2023-04-18T11:16:28.581Z,96463.25
2023-04-18T11:19:30.656Z,96444.38
2023-04-18T11:22:32.349Z,96442.38
2023-04-18T11:25:40.595Z,96446.22
2023-04-18T11:28:43.068Z,96450.09
2023-04-18T11:31:51.984Z,96454.09
2023-04-18T11:34:55.200Z,96451.28
2023-04-18T11:37:56.838Z,96450.44
2023-04-18T11:40:58.391Z,96458.47
2023-04-18T11:44:01.410Z,96459.00
2023-04-18T11:47:03.444Z,96461.16
2023-04-18T11:50:07.750Z,96464.66
2023-04-18T11:53:09.538Z,96453.81
2023-04-18T11:56:13.344Z,96467.53
2023-04-18T11:59:16.187Z,96462.03
2023-04-18T12:02:18.548Z,96459.66
2023-04-18T12:05:31.242Z,96470.19
2023-04-18T12:08:33.472Z,96482.53
2023-04-18T12:11:35.643Z,96487.03
2023-04-18T12:14:37.252Z,96477.13
2023-04-18T12:17:39.447Z,96472.91
2023-04-18T12:20:54.551Z,96475.75
2023-04-18T12:23:57.753Z,96473.91
2023-04-18T12:26:59.727Z,96472.06
2023-04-18T12:30:03.440Z,96465.72
2023-04-18T12:33:05.579Z,96469.75
2023-04-18T12:36:11.178Z,96470.44
2023-04-18T12:39:13.338Z,96466.91
2023-04-18T12:42:15.476Z,96466.91
2023-04-18T12:45:18.521Z,96468.59
2023-04-18T12:48:20.663Z,96463.25
2023-04-18T12:51:23.769Z,96465.78
2023-04-18T12:54:25.901Z,96461.59
2023-04-18T12:57:31.873Z,96467.50
2023-04-18T13:00:34.104Z,96460.50
2023-04-18T13:03:36.711Z,96465.34
2023-04-18T13:06:38.411Z,96461.19
2023-04-18T13:09:39.979Z,96458.69
2023-04-18T13:12:43.452Z,96462.41
2023-04-18T13:15:45.607Z,96455.25
2023-04-18T13:18:47.603Z,96462.97
2023-04-18T13:21:50.088Z,96460.63
2023-04-18T13:24:52.031Z,96455.13
2023-04-18T13:27:58.731Z,96456.13
2023-04-18T13:31:01.646Z,96459.78
2023-04-18T13:34:09.321Z,96455.78
2023-04-18T13:37:11.909Z,96453.91
2023-04-18T13:40:13.705Z,96460.91
2023-04-18T13:43:15.495Z,96460.06
2023-04-18T13:46:17.754Z,96469.41
2023-04-18T13:49:20.068Z,96471.03
2023-04-18T13:52:22.050Z,96471.69
2023-04-18T13:55:25.816Z,96462.13
2023-04-18T13:58:28.013Z,96471.84
2023-04-18T14:01:31.915Z,96470.19
2023-04-18T14:04:36.178Z,96474.69
2023-04-18T14:07:40.623Z,96473.69
2023-04-18T14:10:42.223Z,96473.53
2023-04-18T14:13:44.841Z,96465.34
2023-04-18T14:16:46.710Z,96465.34
2023-04-18T14:48:36.062Z,96487.78
2023-04-18T14:51:38.187Z,96498.81
2023-04-18T14:54:39.796Z,96490.94
2023-04-18T14:57:42.382Z,96499.44
2023-04-18T15:00:44.850Z,96488.22
2023-04-18T15:03:50.237Z,96494.53
2023-04-18T15:06:52.465Z,96491.38
2023-04-18T15:09:55.229Z,96495.19
2023-04-18T15:12:57.027Z,96497.00
2023-04-18T15:16:00.037Z,96492.84
2023-04-18T15:19:03.268Z,96495.66
2023-04-18T15:22:05.766Z,96489.06
2023-04-18T15:25:16.436Z,96492.59
2023-04-18T15:28:19.239Z,96495.44
2023-04-18T15:31:21.859Z,96498.97
2023-04-18T15:34:26.303Z,96499.78
2023-04-18T15:37:29.158Z,96491.59
2023-04-18T15:40:33.049Z,96501.44
2023-04-18T15:43:34.971Z,96499.25
2023-04-18T15:46:36.780Z,96496.72
2023-04-18T15:49:39.004Z,96495.03
2023-04-18T15:52:41.796Z,96505.91
2023-04-18T15:55:43.420Z,96502.41
2023-04-18T15:58:45.057Z,96509.25
2023-04-18T16:01:46.732Z,96510.09
2023-04-18T16:04:49.598Z,96508.13
2023-04-18T16:07:53.830Z,96510.47
2023-04-18T16:10:55.996Z,96511.47
2023-04-18T16:13:57.601Z,96510.94
2023-04-18T16:16:59.730Z,96510.44
2023-04-18T16:20:01.790Z,96524.63
2023-04-18T16:23:04.311Z,96513.25
2023-04-18T16:26:08.566Z,96512.25
2023-04-18T16:29:10.662Z,96515.91
2023-04-18T16:32:12.224Z,96512.56
2023-04-18T16:35:14.647Z,96522.09
2023-04-18T16:38:16.752Z,96515.38
2023-04-18T16:41:19.559Z,96515.00
2023-04-18T16:44:21.580Z,96522.31
2023-04-18T16:47:24.310Z,96519.13
2023-04-18T16:50:26.478Z,96516.63
2023-04-18T16:53:28.303Z,96526.47
2023-04-18T16:56:33.754Z,96516.91
2023-04-18T16:59:35.459Z,96518.78
2023-04-18T17:02:42.722Z,96516.53
2023-04-18T17:05:45.604Z,96518.22
2023-04-18T17:08:48.891Z,96528.06
2023-04-18T17:11:50.683Z,96524.88
2023-04-18T17:14:56.078Z,96527.38
2023-04-18T17:18:00.360Z,96531.03
2023-04-18T17:21:02.142Z,96519.13
2023-04-18T17:24:06.004Z,96526.00
2023-04-18T17:27:09.165Z,96533.31
2023-04-18T17:30:13.932Z,96541.50
2023-04-18T17:33:16.795Z,96539.66
2023-04-18T17:36:21.542Z,96533.78
2023-04-18T17:39:23.572Z,96535.47
2023-04-18T17:42:25.460Z,96536.75
2023-04-18T17:45:27.643Z,96535.03
2023-04-18T17:48:30.299Z,96535.22
2023-04-18T17:51:32.617Z,96537.47
2023-04-18T17:54:34.801Z,96545.81
2023-04-18T17:57:36.428Z,96546.78
2023-04-18T18:00:41.696Z,96540.06
2023-04-18T18:03:44.553Z,96542.06
2023-04-18T18:06:56.865Z,96543.88
2023-04-18T18:09:58.917Z,96547.53
2023-04-18T18:13:00.934Z,96542.34
2023-04-18T18:16:12.133Z,96552.34
2023-04-18T18:19:17.551Z,96542.25
2023-04-18T18:22:21.460Z,96547.31
2023-04-18T18:25:25.618Z,96538.91
2023-04-18T18:28:27.315Z,96551.25
2023-04-18T18:31:30.365Z,96567.28
2023-04-18T18:34:34.990Z,96566.59
2023-04-18T18:37:37.518Z,96557.91
2023-04-18T18:40:39.693Z,96570.25
2023-04-18T18:43:44.153Z,96578.41
2023-04-18T18:47:00.482Z,96565.56
2023-04-18T18:50:12.763Z,96573.09
2023-04-18T18:53:17.974Z,96581.97
2023-04-18T18:56:20.148Z,96577.06
2023-04-18T18:59:30.714Z,96575.66
2023-04-18T19:02:33.134Z,96584.38
2023-04-18T19:05:35.890Z,96582.31
2023-04-18T19:08:55.286Z,96596.88
2023-04-18T19:11:58.463Z,96585.56
2023-04-18T19:15:00.777Z,96590.91
2023-04-18T19:18:04.879Z,96596.63
2023-04-18T19:21:07.762Z,96604.78
2023-04-18T19:24:14.287Z,96602.94
2023-04-18T19:27:17.269Z,96602.28
2023-04-18T19:30:19.534Z,96604.09
2023-04-18T19:33:27.108Z,96608.75
2023-04-18T19:36:29.682Z,96607.06
2023-04-18T19:39:31.449Z,96599.03
2023-04-18T19:42:33.040Z,96601.31
2023-04-18T19:45:35.447Z,96606.78
2023-04-18T19:48:37.939Z,96607.50
2023-04-18T19:51:40.247Z,96600.94
2023-04-18T19:54:41.851Z,96609.47
2023-04-18T19:57:43.950Z,96599.25
2023-04-18T20:00:46.385Z,96618.59
2023-04-18T20:03:48.665Z,96611.75
2023-04-18T20:06:50.869Z,96606.81
2023-04-18T20:09:53.087Z,96613.84
2023-04-18T20:12:54.666Z,96616.81
2023-04-18T20:15:56.276Z,96610.63
2023-04-18T20:18:57.996Z,96611.63
2023-04-18T20:22:00.162Z,96614.44
2023-04-18T20:25:01.801Z,96609.38
2023-04-18T20:28:03.988Z,96618.22
2023-04-18T20:31:06.098Z,96607.72
2023-04-18T20:34:08.069Z,96613.03
2023-04-18T20:37:10.072Z,96620.19
2023-04-18T20:40:12.753Z,96611.34
2023-04-18T20:43:17.790Z,96612.59
2023-04-18T20:46:19.920Z,96610.38
2023-04-18T20:49:21.886Z,96617.09
2023-04-18T20:52:23.490Z,96613.06
2023-04-18T20:55:26.206Z,96611.69
2023-04-18T20:58:29.165Z,96612.66
2023-04-18T21:01:31.671Z,96603.94
2023-04-18T21:04:33.827Z,96609.28
2023-04-18T21:07:36.302Z,96611.09
2023-04-18T21:10:39.128Z,96623.47
2023-04-18T21:13:41.140Z,96624.56
2023-04-18T21:16:46.688Z,96611.69
2023-04-18T21:19:49.655Z,96620.22
2023-04-18T21:22:51.192Z,96618.56
2023-04-18T21:25:53.208Z,96621.22
2023-04-18T21:28:57.556Z,96616.16
2023-04-18T21:31:59.648Z,96623.31
2023-04-18T21:35:01.508Z,96626.00
2023-04-18T21:38:03.667Z,96630.47
2023-04-18T21:41:06.857Z,96618.25
2023-04-18T21:44:08.433Z,96623.75
2023-04-18T21:47:10.986Z,96623.75
2023-04-18T21:50:13.150Z,96618.44
2023-04-18T21:53:17.255Z,96618.56
2023-04-18T21:56:19.403Z,96619.53
2023-04-18T21:59:21.493Z,96619.69
2023-04-18T22:02:28.357Z,96623.19
2023-04-18T22:05:33.726Z,96619.69
2023-04-18T22:08:36.662Z,96613.81
2023-04-18T22:11:38.918Z,96611.81
2023-04-18T22:14:48.160Z,96608.75
2023-04-18T22:17:53.247Z,96613.94
2023-04-18T22:20:55.279Z,96614.66
2023-04-18T22:23:58.224Z,96616.47
2023-04-18T22:27:03.761Z,96611.28
2023-04-18T22:30:07.473Z,96614.91
2023-04-18T22:33:09.453Z,96609.59
2023-04-18T22:36:11.100Z,96606.09
2023-04-18T22:39:13.830Z,96611.72
2023-04-18T22:42:18.285Z,96611.00
2023-04-18T22:45:20.478Z,96617.31
2023-04-18T22:48:22.448Z,96608.75
2023-04-18T22:51:33.016Z,96614.06
2023-04-18T22:54:39.410Z,96608.63
2023-04-18T22:57:41.608Z,96609.75
2023-04-18T23:00:44.325Z,96609.75
2023-04-18T23:03:46.547Z,96607.09
2023-04-18T23:06:48.892Z,96607.09
2023-04-18T23:09:50.891Z,96612.25
2023-04-18T23:12:52.877Z,96611.56
2023-04-18T23:15:55.240Z,96607.50
2023-04-18T23:18:56.882Z,96605.53
2023-04-18T23:22:00.468Z,96604.69
2023-04-18T23:25:02.078Z,96608.63
2023-04-18T23:28:06.468Z,96609.63
2023-04-18T23:31:11.824Z,96612.41
2023-04-18T23:34:14.003Z,96597.53
2023-04-18T23:37:18.690Z,96601.03
2023-04-18T23:40:20.880Z,96598.38
2023-04-18T23:43:23.094Z,96596.84
2023-04-18T23:46:25.999Z,96601.19
2023-04-18T23:49:30.536Z,96594.19
2023-04-18T23:52:32.559Z,96594.31
2023-04-18T23:55:34.540Z,96592.63
2023-04-18T23:58:37.166Z,96585.75
